createdAt,value
2022-12-22T00:01:57.711Z,11.7
2022-12-22T00:07:03.585Z,11.7
2022-12-22T00:12:09.794Z,11.7
2022-12-22T00:17:16.052Z,11.8
2022-12-22T00:22:22.285Z,11.8
2022-12-22T00:27:28.412Z,11.8
2022-12-22T00:32:34.625Z,11.8
2022-12-22T00:37:40.841Z,11.8
2022-12-22T00:42:47.056Z,11.8
2022-12-22T00:47:53.254Z,11.8
2022-12-22T00:52:59.463Z,11.8
2022-12-22T00:58:05.666Z,11.8
2022-12-22T01:03:12.050Z,11.8
2022-12-22T01:08:18.084Z,11.8
2022-12-22T01:13:24.302Z,11.8
2022-12-22T01:18:30.494Z,11.8
2022-12-22T01:23:36.705Z,11.7
2022-12-22T01:28:42.913Z,11.7
2022-12-22T01:33:49.122Z,11.7
2022-12-22T01:38:55.337Z,11.7
2022-12-22T01:44:01.541Z,11.7
2022-12-22T01:49:06.768Z,11.7
2022-12-22T01:54:12.966Z,11.7
2022-12-22T01:59:19.230Z,11.7
2022-12-22T02:04:25.406Z,11.7
2022-12-22T02:09:31.593Z,11.8
2022-12-22T02:14:37.806Z,11.8
2022-12-22T02:19:44.258Z,11.8
2022-12-22T02:24:50.212Z,11.8
2022-12-22T02:29:56.431Z,11.8
2022-12-22T02:35:02.632Z,11.8
2022-12-22T02:40:08.844Z,11.8
2022-12-22T02:45:15.070Z,11.8
2022-12-22T02:50:21.256Z,11.8
2022-12-22T02:55:27.467Z,11.8
2022-12-22T03:00:33.673Z,11.8
2022-12-22T03:05:39.952Z,11.8
2022-12-22T03:10:46.096Z,11.9
2022-12-22T03:15:52.376Z,11.9
2022-12-22T03:20:58.517Z,11.9
2022-12-22T03:26:04.713Z,11.9
2022-12-22T03:31:10.953Z,11.9
2022-12-22T03:36:17.166Z,11.9
2022-12-22T03:41:23.345Z,11.9
2022-12-22T03:46:29.605Z,12.0
2022-12-22T03:51:35.766Z,12.0
2022-12-22T03:56:41.965Z,11.9
2022-12-22T04:01:48.354Z,11.9
2022-12-22T04:06:54.439Z,11.9
2022-12-22T04:12:00.804Z,11.9
2022-12-22T04:17:06.798Z,11.9
2022-12-22T04:22:13.002Z,11.9
2022-12-22T04:27:19.212Z,11.8
2022-12-22T04:32:25.503Z,11.8
2022-12-22T04:37:31.633Z,11.8
2022-12-22T04:42:37.853Z,11.8
2022-12-22T04:47:44.046Z,11.8
2022-12-22T04:52:50.253Z,11.7
2022-12-22T04:57:56.466Z,11.8
2022-12-22T05:03:02.762Z,11.7
2022-12-22T05:08:08.880Z,11.7
2022-12-22T05:13:15.088Z,11.7
2022-12-22T05:18:21.306Z,11.7
2022-12-22T05:23:27.503Z,11.7
2022-12-22T05:28:33.711Z,11.7
2022-12-22T05:33:39.919Z,11.6
2022-12-22T05:38:46.127Z,11.6
2022-12-22T05:43:52.331Z,11.6
2022-12-22T05:48:58.533Z,11.6
2022-12-22T05:54:04.746Z,11.5
2022-12-22T05:59:10.965Z,11.5
2022-12-22T06:04:17.369Z,11.5
2022-12-22T06:09:23.384Z,11.5
2022-12-22T06:14:29.583Z,11.5
2022-12-22T06:19:35.787Z,11.5
2022-12-22T06:24:41.998Z,11.5
2022-12-22T06:29:48.204Z,11.5
2022-12-22T06:34:54.409Z,11.5
2022-12-22T06:40:00.707Z,11.5
2022-12-22T06:45:06.875Z,11.5
2022-12-22T06:50:13.036Z,11.6
2022-12-22T06:55:19.247Z,11.6
2022-12-22T07:00:25.453Z,11.6
2022-12-22T07:05:31.723Z,11.7
2022-12-22T07:10:37.868Z,11.7
2022-12-22T07:15:44.129Z,11.7
2022-12-22T07:20:49.311Z,11.7
2022-12-22T07:25:55.517Z,11.8
2022-12-22T07:31:01.745Z,11.8
2022-12-22T07:36:08.030Z,11.8
2022-12-22T07:41:14.135Z,11.8
2022-12-22T07:46:20.385Z,11.8
2022-12-22T07:51:25.567Z,11.8
2022-12-22T07:56:31.778Z,11.8
2022-12-22T08:01:38.346Z,11.8
2022-12-22T08:06:44.221Z,11.8
2022-12-22T08:11:50.521Z,11.8
2022-12-22T08:16:56.616Z,11.7
2022-12-22T08:22:02.815Z,11.7
2022-12-22T08:27:09.028Z,11.7
2022-12-22T08:32:15.227Z,11.7
2022-12-22T08:37:21.460Z,11.6
2022-12-22T08:42:27.643Z,11.6
2022-12-22T08:47:33.937Z,11.6
2022-12-22T08:52:40.184Z,11.6
2022-12-22T08:57:50.723Z,11.6
2022-12-22T09:02:52.637Z,11.6
2022-12-22T09:07:58.682Z,11.6
2022-12-22T09:13:04.896Z,11.6
2022-12-22T09:18:11.109Z,11.6
2022-12-22T09:23:17.315Z,11.6
2022-12-22T09:28:23.518Z,11.6
2022-12-22T09:33:29.723Z,11.5
2022-12-22T09:38:35.955Z,11.5
2022-12-22T09:43:42.135Z,11.4
2022-12-22T09:48:48.349Z,11.3
2022-12-22T09:53:54.568Z,11.3
2022-12-22T09:59:00.899Z,11.2
2022-12-22T10:04:06.969Z,11.2
2022-12-22T10:09:45.753Z,11.2
2022-12-22T10:14:19.387Z,11.2
2022-12-22T10:19:25.600Z,11.3
2022-12-22T10:24:31.811Z,11.3
2022-12-22T10:29:38.020Z,11.3
2022-12-22T10:34:44.224Z,11.4
2022-12-22T10:39:50.429Z,11.4
2022-12-22T10:44:56.635Z,11.4
2022-12-22T10:50:03.060Z,11.5
2022-12-22T10:55:09.111Z,11.5
2022-12-22T11:00:15.380Z,11.6
2022-12-22T11:05:21.480Z,11.6
2022-12-22T11:10:27.678Z,11.7
2022-12-22T11:15:33.893Z,11.7
2022-12-22T11:20:40.122Z,11.7
2022-12-22T11:25:46.306Z,11.7
2022-12-22T11:30:52.584Z,11.8
2022-12-22T11:35:58.732Z,11.8
2022-12-22T11:41:04.923Z,11.9
2022-12-22T11:46:11.166Z,11.9
2022-12-22T11:51:22.192Z,11.9
2022-12-22T11:56:23.576Z,11.9
2022-12-22T12:01:29.800Z,11.8
2022-12-22T12:06:35.974Z,11.8
2022-12-22T12:11:42.173Z,11.9
2022-12-22T12:16:48.378Z,12.0
2022-12-22T12:21:54.591Z,12.0
2022-12-22T12:27:00.795Z,12.0
2022-12-22T12:32:07.063Z,12.1
2022-12-22T12:37:13.218Z,12.1
2022-12-22T12:42:19.416Z,12.1
2022-12-22T12:47:25.650Z,12.1
2022-12-22T12:52:31.846Z,12.0
2022-12-22T12:57:38.051Z,12.0
2022-12-22T13:02:44.377Z,12.0
2022-12-22T13:07:50.559Z,12.0
2022-12-22T13:12:56.675Z,12.0
2022-12-22T13:18:03.049Z,12.1
2022-12-22T13:23:08.123Z,12.1
2022-12-22T13:28:14.309Z,12.1
2022-12-22T13:33:20.615Z,12.0
2022-12-22T13:38:26.733Z,12.0
2022-12-22T13:43:32.930Z,12.0
2022-12-22T13:48:44.036Z,12.0
2022-12-22T13:58:51.560Z,12.0
2022-12-22T14:04:01.495Z,12.0
2022-12-22T14:09:03.993Z,12.0
2022-12-22T14:19:16.409Z,12.1
2022-12-22T14:24:22.605Z,12.1
2022-12-22T14:29:28.811Z,12.1
2022-12-22T14:34:35.039Z,12.1
2022-12-22T14:39:41.231Z,12.1
2022-12-22T14:44:47.436Z,12.1
2022-12-22T14:49:53.640Z,12.1
2022-12-22T14:54:59.854Z,12.0
2022-12-22T15:00:06.072Z,12.0
2022-12-22T15:05:12.262Z,12.0
2022-12-22T15:10:18.497Z,12.0
2022-12-22T15:15:24.683Z,11.9
2022-12-22T15:20:38.559Z,11.9
2022-12-22T15:25:37.101Z,11.8
2022-12-22T15:30:43.391Z,11.8
2022-12-22T15:35:49.518Z,11.7
2022-12-22T15:40:55.743Z,11.7
2022-12-22T15:46:02.002Z,11.6
2022-12-22T15:56:17.648Z,11.5
2022-12-22T16:01:20.662Z,11.4
2022-12-22T16:06:26.766Z,11.4
2022-12-22T16:11:32.980Z,11.3
2022-12-22T16:16:39.215Z,11.3
2022-12-22T16:21:45.387Z,11.3
2022-12-22T16:26:51.592Z,11.2
2022-12-22T16:31:57.815Z,11.2
2022-12-22T16:37:04.019Z,11.1
2022-12-22T16:42:10.227Z,11.1
2022-12-22T16:47:16.427Z,11.1
2022-12-22T16:52:22.641Z,11.1
2022-12-22T16:57:28.847Z,11.1
2022-12-22T17:02:35.197Z,11.1
2022-12-22T17:07:41.270Z,11.1
2022-12-22T17:12:47.509Z,11.1
2022-12-22T17:17:53.683Z,11.1
2022-12-22T17:22:59.908Z,11.2
2022-12-22T17:28:06.086Z,11.2
2022-12-22T17:33:12.323Z,11.2
2022-12-22T17:38:18.507Z,11.2
2022-12-22T17:43:24.729Z,11.3
2022-12-22T17:48:30.940Z,11.3
2022-12-22T17:53:40.897Z,11.4
2022-12-22T17:58:43.348Z,11.4
2022-12-22T18:03:49.593Z,11.5
2022-12-22T18:08:55.753Z,11.5
2022-12-22T18:14:02.022Z,11.6
2022-12-22T18:19:08.195Z,11.7
2022-12-22T18:24:14.375Z,11.7
2022-12-22T18:29:20.618Z,11.8
2022-12-22T18:34:26.792Z,11.9
2022-12-22T18:39:33.019Z,11.9
2022-12-22T18:44:39.213Z,12.0
2022-12-22T18:49:45.544Z,12.0
2022-12-22T18:54:51.643Z,12.1
2022-12-22T18:59:56.856Z,12.2
2022-12-22T19:05:03.059Z,12.2
2022-12-22T19:10:09.266Z,12.3
2022-12-22T19:15:15.473Z,12.3
2022-12-22T19:20:21.694Z,12.4
2022-12-22T19:25:27.895Z,12.4
2022-12-22T19:30:34.098Z,12.5
2022-12-22T19:35:40.316Z,12.5
2022-12-22T19:40:46.516Z,12.5
2022-12-22T19:45:52.754Z,12.6
2022-12-22T19:50:58.944Z,12.6
2022-12-22T19:56:05.149Z,12.7
2022-12-22T20:01:11.418Z,12.7
2022-12-22T20:11:23.761Z,12.7
2022-12-22T20:16:29.994Z,12.8
2022-12-22T20:21:36.199Z,12.8
2022-12-22T20:26:42.417Z,12.8
2022-12-22T20:31:48.649Z,12.8
2022-12-22T20:36:54.804Z,12.8
2022-12-22T20:42:01.023Z,12.8
2022-12-22T20:47:07.218Z,12.8
2022-12-22T20:52:13.427Z,12.9
2022-12-22T20:57:19.638Z,12.9
2022-12-22T21:02:26.018Z,12.9
2022-12-22T21:07:32.057Z,12.9
2022-12-22T21:12:38.261Z,12.9
2022-12-22T21:17:46.203Z,12.9
2022-12-22T21:22:50.731Z,12.9
2022-12-22T21:27:56.906Z,12.8
2022-12-22T21:33:03.099Z,12.8
2022-12-22T21:38:09.305Z,12.8
2022-12-22T21:43:15.525Z,12.8
2022-12-22T21:48:21.735Z,12.8
2022-12-22T21:53:27.927Z,12.8
2022-12-22T21:58:34.146Z,12.8
2022-12-22T22:03:40.407Z,12.8
2022-12-22T22:08:46.566Z,12.8
2022-12-22T22:13:52.889Z,12.8
2022-12-22T22:18:58.974Z,12.8
2022-12-22T22:24:05.182Z,12.8
2022-12-22T22:29:11.387Z,12.8
2022-12-22T22:34:17.629Z,12.8
2022-12-22T22:39:23.995Z,12.8
2022-12-22T22:44:30.024Z,12.8
2022-12-22T22:49:36.221Z,12.9
2022-12-22T22:54:42.430Z,12.9
2022-12-22T22:59:48.661Z,12.9
2022-12-22T23:04:54.870Z,12.9
2022-12-22T23:10:01.067Z,12.9
2022-12-22T23:15:07.270Z,12.9
2022-12-22T23:20:13.483Z,12.9
2022-12-22T23:25:19.678Z,12.8
2022-12-22T23:30:25.892Z,12.8
2022-12-22T23:35:32.098Z,12.8
2022-12-22T23:45:44.521Z,12.8
2022-12-22T23:50:50.727Z,12.8
2022-12-22T23:55:56.928Z,12.8
